createdAt,value
2023-05-04T14:04:23.304Z,97176.56
2023-05-04T14:05:38.619Z,97177.56
2023-05-04T14:06:41.637Z,97179.09
2023-05-04T14:07:45.081Z,97176.09
2023-05-04T14:08:48.634Z,97178.81
2023-05-04T14:09:52.391Z,97182.00
2023-05-04T14:10:55.728Z,97182.81
2023-05-04T14:11:59.183Z,97173.56
2023-05-04T14:13:02.731Z,97174.59
2023-05-04T14:14:06.232Z,97172.41
2023-05-04T14:15:10.766Z,97169.59
2023-05-04T14:16:14.219Z,97171.22
2023-05-04T14:17:16.949Z,97173.03
2023-05-04T14:18:20.614Z,97169.22
2023-05-04T14:19:26.484Z,97173.22
2023-05-04T14:20:30.000Z,97172.75
2023-05-04T14:21:32.423Z,97169.00
2023-05-04T14:22:38.039Z,97172.91
2023-05-04T14:23:41.994Z,97165.38
2023-05-04T14:24:44.586Z,97168.97
2023-05-04T14:25:52.311Z,97172.59
2023-05-04T14:26:55.173Z,97173.19
2023-05-04T14:27:58.590Z,97176.97
2023-05-04T14:29:01.083Z,97174.28
2023-05-04T14:30:05.036Z,97164.75
2023-05-04T14:31:09.072Z,97167.16
2023-05-04T14:32:12.590Z,97169.06
2023-05-04T14:33:16.013Z,97170.97
2023-05-04T14:34:18.772Z,97161.22
2023-05-04T14:35:23.798Z,97172.59
2023-05-04T14:36:26.281Z,97172.00
2023-05-04T14:37:29.534Z,97170.09
2023-05-04T14:38:32.847Z,97171.41
2023-05-04T14:39:36.675Z,97167.59
2023-05-04T14:40:39.397Z,97165.38
2023-05-04T14:41:42.676Z,97163.16
2023-05-04T14:42:45.173Z,97170.41
2023-05-04T14:43:48.992Z,97165.81
2023-05-04T14:44:53.202Z,97168.41
2023-05-04T14:45:57.669Z,97164.84
2023-05-04T14:47:03.516Z,97169.47
2023-05-04T14:48:08.856Z,97169.47
2023-05-04T14:49:16.254Z,97169.22
2023-05-04T14:50:29.616Z,97166.31
2023-05-04T14:51:34.130Z,97165.22
2023-05-04T14:52:37.662Z,97159.78
2023-05-04T14:53:41.120Z,97160.59
2023-05-04T14:54:45.295Z,97158.97
2023-05-04T14:55:48.937Z,97154.16
2023-05-04T14:56:52.401Z,97161.00
2023-05-04T14:57:56.839Z,97161.59
2023-05-04T14:59:02.133Z,97160.47
2023-05-04T15:00:09.109Z,97152.94
2023-05-04T15:01:13.928Z,97159.53
2023-05-04T15:02:17.694Z,97156.94
2023-05-04T15:03:21.878Z,97154.31
2023-05-04T15:04:25.466Z,97149.06
2023-05-04T15:05:30.166Z,97151.03
2023-05-04T15:06:34.019Z,97149.22
2023-05-04T15:07:37.665Z,97159.06
2023-05-04T15:08:41.093Z,97157.13
2023-05-04T15:09:43.527Z,97159.81
2023-05-04T15:10:47.213Z,97156.84
2023-05-04T15:11:49.748Z,97157.94
2023-05-04T15:12:53.383Z,97151.13
2023-05-04T15:13:58.857Z,97156.25
2023-05-04T15:15:01.496Z,97152.94
2023-05-04T15:16:06.545Z,97153.44
2023-05-04T15:17:09.121Z,97148.03
2023-05-04T15:18:12.652Z,97157.47
2023-05-04T15:19:15.156Z,97151.75
2023-05-04T15:20:19.313Z,97151.69
2023-05-04T15:21:25.585Z,97151.91
2023-05-04T15:22:28.956Z,97151.69
2023-05-04T15:23:32.326Z,97151.69
2023-05-04T15:24:34.885Z,97147.09
2023-05-04T15:25:39.564Z,97148.78
2023-05-04T15:26:42.001Z,97154.25
2023-05-04T15:27:45.996Z,97147.84
2023-05-04T15:28:49.298Z,97150.84
2023-05-04T15:29:52.068Z,97147.63
2023-05-04T15:30:55.450Z,97143.00
2023-05-04T15:31:58.118Z,97143.81
2023-05-04T15:33:01.789Z,97143.00
2023-05-04T15:34:05.212Z,97145.19
2023-05-04T15:35:09.063Z,97144.50
2023-05-04T15:36:13.261Z,97150.72
2023-05-04T15:37:17.076Z,97143.97
2023-05-04T15:38:20.972Z,97149.97
2023-05-04T15:39:24.352Z,97141.34
2023-05-04T15:40:27.134Z,97150.56
2023-05-04T15:41:33.988Z,97140.00
2023-05-04T15:42:36.454Z,97152.66
2023-05-04T15:43:39.843Z,97140.16
2023-05-04T15:44:42.384Z,97141.19
2023-05-04T15:45:46.049Z,97148.63
2023-05-04T15:46:50.226Z,97149.66
2023-05-04T15:47:54.283Z,97150.66
2023-05-04T15:48:57.746Z,97148.38
2023-05-04T15:50:00.198Z,97151.09
2023-05-04T15:51:03.544Z,97159.22
2023-05-04T15:52:06.243Z,97154.91
2023-05-04T15:53:10.846Z,97145.16
2023-05-04T15:54:14.598Z,97151.69
2023-05-04T15:55:26.028Z,97150.88
2023-05-04T15:56:30.112Z,97156.56
2023-05-04T15:57:32.590Z,97156.88
2023-05-04T15:58:36.565Z,97154.19
2023-05-04T15:59:39.586Z,97152.78
2023-05-04T16:00:43.251Z,97151.69
2023-05-04T16:01:46.974Z,97151.69
2023-05-04T16:02:50.622Z,97154.41
2023-05-04T16:03:56.623Z,97154.09
2023-05-04T16:05:00.217Z,97150.56
2023-05-04T16:06:02.990Z,97149.19
2023-05-04T16:07:06.464Z,97148.38
2023-05-04T16:08:11.609Z,97153.22
2023-05-04T16:09:17.163Z,97149.91
2023-05-04T16:10:21.310Z,97146.09
2023-05-04T16:11:23.725Z,97144.97
2023-05-04T16:12:27.238Z,97143.41
2023-05-04T16:13:29.828Z,97146.88
2023-05-04T16:14:33.234Z,97150.41
2023-05-04T16:15:37.146Z,97144.69
2023-05-04T16:16:41.525Z,97149.91
2023-05-04T16:17:44.034Z,97150.19
2023-05-04T16:18:47.476Z,97142.97
2023-05-04T16:19:49.927Z,97143.56
2023-05-04T16:20:54.736Z,97141.44
2023-05-04T16:21:57.127Z,97144.44
2023-05-04T16:23:01.114Z,97135.03
2023-05-04T16:24:07.830Z,97142.13
2023-05-04T16:25:11.414Z,97139.19
2023-05-04T16:26:15.001Z,97136.81
2023-05-04T16:27:17.417Z,97135.19
2023-05-04T16:28:21.227Z,97138.97
2023-05-04T16:29:24.530Z,97130.56
2023-05-04T16:30:32.357Z,97130.56
2023-05-04T16:31:34.812Z,97132.75
2023-05-04T16:32:38.397Z,97134.69
2023-05-04T16:33:47.182Z,97132.53
2023-05-04T16:34:50.673Z,97130.53
2023-05-04T16:35:53.181Z,97136.78
2023-05-04T16:36:56.594Z,97127.66
2023-05-04T16:37:59.131Z,97132.84
2023-05-04T16:39:02.610Z,97132.91
2023-05-04T16:40:14.963Z,97127.59
2023-05-04T16:41:19.693Z,97124.94
2023-05-04T16:42:22.744Z,97126.94
2023-05-04T16:43:26.484Z,97128.34
2023-05-04T16:44:29.833Z,97130.50
2023-05-04T16:45:33.583Z,97132.72
2023-05-04T16:46:36.456Z,97130.00
2023-05-04T16:47:39.876Z,97130.00
2023-05-04T16:48:42.707Z,97123.78
2023-05-04T16:49:46.612Z,97125.19
2023-05-04T16:50:49.054Z,97129.28
2023-05-04T16:51:53.682Z,97126.94
2023-05-04T16:52:56.079Z,97133.94
2023-05-04T16:53:59.855Z,97137.19
2023-05-04T16:55:02.698Z,97126.63
2023-05-04T16:56:08.383Z,97135.56
2023-05-04T16:57:11.151Z,97128.84
2023-05-04T16:58:14.560Z,97128.84
2023-05-04T16:59:17.484Z,97127.44
2023-05-04T17:00:21.591Z,97129.28
2023-05-04T17:01:26.905Z,97130.50
2023-05-04T17:02:30.418Z,97134.78
2023-05-04T17:03:33.899Z,97135.78
2023-05-04T17:04:36.407Z,97140.59
2023-05-04T17:05:40.215Z,97140.09
2023-05-04T17:06:42.654Z,97134.19
2023-05-04T17:07:46.113Z,97141.78
2023-05-04T17:08:48.616Z,97133.16
2023-05-04T17:09:52.123Z,97134.25
2023-05-04T17:10:59.027Z,97139.06
2023-05-04T17:12:03.944Z,97130.13
2023-05-04T17:13:07.191Z,97131.75
2023-05-04T17:14:11.030Z,97137.38
2023-05-04T17:15:13.607Z,97138.19
2023-05-04T17:16:18.258Z,97139.00
2023-05-04T17:17:20.875Z,97142.72
2023-05-04T17:18:24.206Z,97137.84
2023-05-04T17:19:26.745Z,97140.22
2023-05-04T17:20:32.359Z,97139.94
2023-05-04T17:21:35.767Z,97138.06
2023-05-04T17:22:38.501Z,97146.66
2023-05-04T17:23:42.476Z,97143.69
2023-05-04T17:24:45.876Z,97153.38
2023-05-04T17:25:50.317Z,97151.22
2023-05-04T17:26:54.096Z,97152.78
2023-05-04T17:27:57.898Z,97144.69
2023-05-04T17:29:01.438Z,97157.13
2023-05-04T17:30:04.764Z,97154.34
2023-05-04T17:31:11.605Z,97158.41
2023-05-04T17:32:15.090Z,97157.00
2023-05-04T17:33:17.583Z,97157.00
2023-05-04T17:34:20.929Z,97155.38
2023-05-04T17:35:26.281Z,97159.22
2023-05-04T17:36:30.153Z,97161.13
2023-05-04T17:37:33.145Z,97157.44
2023-05-04T17:38:36.580Z,97161.72
2023-05-04T17:39:39.986Z,97162.53
2023-05-04T17:40:43.440Z,97162.53
2023-05-04T17:41:48.724Z,97158.22
2023-05-04T17:42:52.307Z,97157.72
2023-05-04T17:43:56.877Z,97162.63
2023-05-04T17:45:00.339Z,97157.25
2023-05-04T17:46:03.360Z,97160.28
2023-05-04T17:47:06.868Z,97167.88
2023-05-04T17:48:09.609Z,97161.97
2023-05-04T17:49:13.357Z,97162.75
2023-05-04T17:50:15.768Z,97159.31
2023-05-04T17:51:19.174Z,97165.84
2023-05-04T17:52:21.548Z,97165.84
2023-05-04T17:53:25.866Z,97168.22
2023-05-04T17:54:28.459Z,97163.94
2023-05-04T17:55:32.051Z,97164.72
2023-05-04T17:56:34.813Z,97168.22
2023-05-04T17:57:38.254Z,97171.47
2023-05-04T17:58:40.705Z,97179.06
2023-05-04T17:59:45.479Z,97171.03
2023-05-04T18:00:48.146Z,97178.41
2023-05-04T18:01:52.722Z,97179.28
2023-05-04T18:02:56.447Z,97176.63
2023-05-04T18:03:59.955Z,97182.63
2023-05-04T18:05:02.521Z,97179.69
2023-05-04T18:06:08.386Z,97182.69
2023-05-04T18:07:11.038Z,97182.25
2023-05-04T18:08:14.937Z,97190.13
2023-05-04T18:09:17.313Z,97189.38
2023-05-04T18:10:20.815Z,97198.31
2023-05-04T18:11:23.236Z,97193.50
2023-05-04T18:12:26.741Z,97196.50
2023-05-04T18:13:30.192Z,97194.06
2023-05-04T18:14:32.761Z,97198.16
2023-05-04T18:15:37.548Z,97200.84
2023-05-04T18:16:40.090Z,97198.44
2023-05-04T18:17:43.648Z,97206.84
2023-05-04T18:18:46.180Z,97193.91
2023-05-04T18:19:49.532Z,97205.00
2023-05-04T18:20:52.878Z,97202.88
2023-05-04T18:21:56.177Z,97206.94
2023-05-04T18:23:00.165Z,97198.63
2023-05-04T18:24:02.586Z,97206.47
2023-05-04T18:25:06.608Z,97203.28
2023-05-04T18:26:09.244Z,97198.69
2023-05-04T18:27:12.584Z,97211.06
2023-05-04T18:28:14.995Z,97207.06
2023-05-04T18:29:19.585Z,97210.34
2023-05-04T18:30:23.427Z,97211.97
2023-05-04T18:31:27.720Z,97207.72
2023-05-04T18:32:31.319Z,97202.09
2023-05-04T18:33:34.980Z,97213.97
2023-05-04T18:34:37.731Z,97206.44
2023-05-04T18:35:41.174Z,97213.22
2023-05-04T18:36:43.689Z,97213.78
2023-05-04T18:37:47.067Z,97217.56
2023-05-04T18:38:53.056Z,97212.75
2023-05-04T18:39:56.514Z,97215.22
2023-05-04T18:40:59.145Z,97213.88
2023-05-04T18:42:02.870Z,97212.28
2023-05-04T18:43:06.954Z,97216.63
2023-05-04T18:44:10.528Z,97209.69
2023-05-04T18:45:14.021Z,97211.63
2023-05-04T18:46:16.571Z,97219.50
2023-05-04T18:47:21.581Z,97219.03
2023-05-04T18:48:24.146Z,97220.69
2023-05-04T18:49:27.908Z,97217.53
2023-05-04T18:50:32.872Z,97223.50
2023-05-04T18:51:35.431Z,97220.91
2023-05-04T18:52:38.899Z,97217.66
2023-05-04T18:53:41.385Z,97227.41
2023-05-04T18:54:44.891Z,97228.00
2023-05-04T18:55:48.755Z,97224.78
2023-05-04T18:56:51.230Z,97229.09
2023-05-04T18:57:54.662Z,97231.84
2023-05-04T18:58:57.091Z,97227.56
2023-05-04T19:00:00.511Z,97231.34
2023-05-04T19:01:08.187Z,97228.69
2023-05-04T19:02:12.706Z,97241.34
2023-05-04T19:03:16.988Z,97237.06
2023-05-04T19:04:20.773Z,97238.91
2023-05-04T19:05:23.201Z,97242.44
2023-05-04T19:06:26.645Z,97241.66
2023-05-04T19:07:29.024Z,97243.28
2023-05-04T19:08:32.539Z,97243.56
2023-05-04T19:09:35.015Z,97242.75
2023-05-04T19:10:38.710Z,97251.38
2023-05-04T19:11:41.452Z,97244.91
2023-05-04T19:12:45.581Z,97245.16
2023-05-04T19:13:49.848Z,97251.06
2023-05-04T19:14:54.113Z,97250.81
2023-05-04T19:15:56.593Z,97246.72
2023-05-04T19:17:00.860Z,97250.22
2023-05-04T19:18:03.623Z,97258.28
2023-05-04T19:19:10.000Z,97252.34
2023-05-04T19:20:12.816Z,97252.88
2023-05-04T19:21:16.571Z,97258.25
2023-05-04T19:22:19.977Z,97259.03
2023-05-04T19:23:22.429Z,97258.75
2023-05-04T19:24:26.291Z,97263.84
2023-05-04T19:25:34.829Z,97264.38
2023-05-04T19:26:39.197Z,97265.72
2023-05-04T19:27:41.727Z,97265.44
2023-05-04T19:28:45.378Z,97258.72
2023-05-04T19:29:47.790Z,97264.63
2023-05-04T19:30:52.998Z,97265.94
2023-05-04T19:31:55.489Z,97265.66
2023-05-04T19:32:59.069Z,97268.34
2023-05-04T19:34:01.915Z,97267.25
2023-05-04T19:35:07.698Z,97268.59
2023-05-04T19:36:10.798Z,97275.28
2023-05-04T19:37:14.130Z,97270.69
2023-05-04T19:38:17.896Z,97276.03
2023-05-04T19:39:21.471Z,97276.84
2023-05-04T19:40:23.951Z,97275.25
2023-05-04T19:41:27.526Z,97278.19
2023-05-04T19:42:30.067Z,97282.75
2023-05-04T19:43:34.596Z,97278.44
2023-05-04T19:44:37.054Z,97288.13
2023-05-04T19:45:41.080Z,97287.00
2023-05-04T19:46:51.716Z,97277.56
2023-05-04T19:47:54.969Z,97282.69
2023-05-04T19:48:58.435Z,97286.44
2023-05-04T19:50:01.023Z,97288.84
2023-05-04T19:51:06.022Z,97283.69
2023-05-04T19:52:08.582Z,97288.53
2023-05-04T19:53:12.188Z,97288.47
2023-05-04T19:54:16.142Z,97283.63
2023-05-04T19:55:18.720Z,97291.16
2023-05-04T19:56:22.234Z,97286.84
2023-05-04T19:57:25.674Z,97291.16
2023-05-04T19:58:30.956Z,97297.03
2023-05-04T19:59:34.712Z,97297.56
2023-05-04T20:00:38.016Z,97292.19
2023-05-04T20:01:42.296Z,97292.19
2023-05-04T20:02:44.873Z,97292.19
2023-05-04T20:03:48.543Z,97299.16
2023-05-04T20:04:51.526Z,97298.63
2023-05-04T20:05:55.644Z,97298.06
2023-05-04T20:06:59.599Z,97301.81
2023-05-04T20:08:05.178Z,97295.63
2023-05-04T20:09:08.202Z,97293.75
2023-05-04T20:10:12.197Z,97296.44
2023-05-04T20:11:14.752Z,97299.13
2023-05-04T20:12:18.260Z,97302.88
2023-05-04T20:13:20.937Z,97299.91
2023-05-04T20:14:24.731Z,97298.53
2023-05-04T20:15:27.534Z,97303.66
2023-05-04T20:16:31.066Z,97300.13
2023-05-04T20:17:33.818Z,97303.88
2023-05-04T20:18:37.238Z,97307.63
2023-05-04T20:19:43.067Z,97308.16
2023-05-04T20:20:46.827Z,97304.66
2023-05-04T20:21:49.323Z,97307.31
2023-05-04T20:22:56.253Z,97308.16
2023-05-04T20:23:59.524Z,97312.94
2023-05-04T20:25:03.274Z,97315.63
2023-05-04T20:26:06.181Z,97306.22
2023-05-04T20:27:09.928Z,97304.31
2023-05-04T20:28:12.484Z,97310.19
2023-05-04T20:29:17.068Z,97308.56
2023-05-04T20:30:21.680Z,97313.97
2023-05-04T20:31:25.513Z,97315.88
2023-05-04T20:32:28.334Z,97310.31
2023-05-04T20:33:31.866Z,97310.38
2023-05-04T20:34:34.343Z,97312.84
2023-05-04T20:35:37.889Z,97319.59
2023-05-04T20:36:40.393Z,97320.19
2023-05-04T20:37:43.921Z,97318.09
2023-05-04T20:38:47.890Z,97319.72
2023-05-04T20:39:53.033Z,97314.94
2023-05-04T20:40:55.581Z,97317.63
2023-05-04T20:41:59.374Z,97318.91
2023-05-04T20:43:01.967Z,97318.13
2023-05-04T20:44:05.639Z,97318.38
2023-05-04T20:45:09.322Z,97318.66
2023-05-04T20:46:12.781Z,97318.66
2023-05-04T20:47:15.273Z,97314.88
2023-05-04T20:48:19.041Z,97313.81
2023-05-04T20:49:21.472Z,97325.66
2023-05-04T20:50:25.172Z,97317.13
2023-05-04T20:51:28.005Z,97307.47
2023-05-04T20:52:32.129Z,97312.63
2023-05-04T20:53:37.200Z,97323.13
2023-05-04T20:54:41.716Z,97321.53
2023-05-04T20:55:45.091Z,97324.50
2023-05-04T20:56:47.783Z,97326.13
2023-05-04T20:57:52.725Z,97318.59
2023-05-04T20:58:55.868Z,97322.09
2023-05-04T20:59:59.432Z,97320.44
2023-05-04T21:01:05.695Z,97317.72
2023-05-04T21:02:09.390Z,97322.00
2023-05-04T21:03:13.099Z,97332.72
2023-05-04T21:04:17.027Z,97326.28
2023-05-04T21:05:19.513Z,97327.06
2023-05-04T21:06:23.385Z,97326.81
2023-05-04T21:07:26.375Z,97322.00
2023-05-04T21:08:29.742Z,97321.22
2023-05-04T21:09:32.661Z,97327.41
2023-05-04T21:10:37.328Z,97322.56
2023-05-04T21:11:39.796Z,97332.25
2023-05-04T21:12:43.193Z,97328.78
2023-05-04T21:13:45.674Z,97331.75
2023-05-04T21:14:49.131Z,97326.94
2023-05-04T21:15:51.929Z,97328.53
2023-05-04T21:16:55.396Z,97330.72
2023-05-04T21:17:58.768Z,97332.31
2023-05-04T21:19:01.727Z,97328.03
2023-05-04T21:20:06.098Z,97329.09
2023-05-04T21:21:09.186Z,97333.41
2023-05-04T21:22:17.584Z,97333.41
2023-05-04T21:23:20.141Z,97330.16
2023-05-04T21:24:23.515Z,97337.69
2023-05-04T21:25:26.332Z,97332.03
2023-05-04T21:26:31.395Z,97334.97
2023-05-04T21:27:33.887Z,97340.31
2023-05-04T21:28:37.273Z,97334.44
2023-05-04T21:29:39.661Z,97339.56
2023-05-04T21:30:43.593Z,97335.53
2023-05-04T21:31:46.654Z,97336.88
2023-05-04T21:32:50.337Z,97334.47
2023-05-04T21:33:55.534Z,97339.84
2023-05-04T21:34:59.392Z,97334.25
2023-05-04T21:36:11.068Z,97333.97
2023-05-04T21:37:14.738Z,97341.78
2023-05-04T21:38:18.887Z,97336.66
2023-05-04T21:39:23.675Z,97338.81
2023-05-04T21:40:27.552Z,97343.41
2023-05-04T21:41:32.384Z,97335.59
2023-05-04T21:42:35.544Z,97342.03
2023-05-04T21:43:38.828Z,97333.19
2023-05-04T21:44:42.928Z,97343.94
2023-05-04T21:45:46.344Z,97346.88
2023-05-04T21:46:48.927Z,97351.94
2023-05-04T21:47:52.300Z,97352.47
2023-05-04T21:48:54.732Z,97348.44
2023-05-04T21:49:58.016Z,97354.88
2023-05-04T21:51:00.567Z,97357.56
2023-05-04T21:52:04.202Z,97359.44
2023-05-04T21:53:06.686Z,97356.75
2023-05-04T21:54:10.029Z,97354.06
2023-05-04T21:55:13.049Z,97356.50
2023-05-04T21:56:16.604Z,97355.69
2023-05-04T21:57:20.850Z,97353.81
2023-05-04T21:58:24.260Z,97354.88
2023-05-04T21:59:26.634Z,97361.31
2023-05-04T22:00:30.486Z,97359.72
2023-05-04T22:01:37.849Z,97354.56
2023-05-04T22:02:41.261Z,97354.56
2023-05-04T22:03:44.356Z,97354.56
2023-05-04T22:04:47.906Z,97353.47
2023-05-04T22:05:54.432Z,97352.34
2023-05-04T22:06:58.196Z,97353.69
2023-05-04T22:08:01.018Z,97352.06
2023-05-04T22:09:05.209Z,97359.81
2023-05-04T22:10:08.930Z,97353.09
2023-05-04T22:11:12.568Z,97356.84
2023-05-04T22:12:14.941Z,97352.47
2023-05-04T22:13:20.062Z,97361.06
2023-05-04T22:14:23.455Z,97356.47
2023-05-04T22:15:34.297Z,97358.28
2023-05-04T22:16:42.136Z,97352.84
2023-05-04T22:17:44.960Z,97350.13
2023-05-04T22:18:49.635Z,97350.09
2023-05-04T22:19:52.075Z,97349.50
2023-05-04T22:20:55.634Z,97347.34
2023-05-04T22:21:58.221Z,97351.91
2023-05-04T22:23:02.013Z,97351.09
2023-05-04T22:24:04.875Z,97352.41
2023-05-04T22:25:08.568Z,97351.91
2023-05-04T22:26:10.928Z,97359.94
2023-05-04T22:27:14.232Z,97355.13
2023-05-04T22:28:17.023Z,97361.00
2023-05-04T22:29:21.714Z,97361.81
2023-05-04T22:30:25.763Z,97361.81
2023-05-04T22:31:29.654Z,97359.38
2023-05-04T22:32:32.012Z,97359.69
2023-05-04T22:33:35.755Z,97357.78
2023-05-04T22:34:38.206Z,97352.66
2023-05-04T22:35:41.547Z,97357.47
2023-05-04T22:36:43.973Z,97356.34
2023-05-04T22:37:48.387Z,97355.75
2023-05-04T22:38:52.188Z,97368.03
2023-05-04T22:39:55.500Z,97361.03
2023-05-04T22:40:57.946Z,97368.53
2023-05-04T22:42:01.542Z,97365.78
2023-05-04T22:43:03.949Z,97351.81
2023-05-04T22:44:07.440Z,97353.94
2023-05-04T22:45:12.975Z,97352.00
2023-05-04T22:46:17.022Z,97358.41
2023-05-04T22:47:19.680Z,97357.28
2023-05-04T22:48:23.167Z,97356.44
2023-05-04T22:49:25.920Z,97356.44
2023-05-04T22:50:29.667Z,97356.44
2023-05-04T22:51:32.593Z,97363.09
2023-05-04T22:52:36.124Z,97362.81
2023-05-04T22:53:38.588Z,97360.34
2023-05-04T22:54:42.365Z,97361.97
2023-05-04T22:55:45.161Z,97363.31
2023-05-04T22:56:48.493Z,97369.16
2023-05-04T22:57:50.889Z,97366.72
2023-05-04T22:58:54.603Z,97372.59
2023-05-04T22:59:57.018Z,97371.00
2023-05-04T23:01:01.711Z,97369.06
2023-05-04T23:02:04.486Z,97376.53
2023-05-04T23:03:08.252Z,97374.38
2023-05-04T23:04:11.684Z,97372.16
2023-05-04T23:05:15.067Z,97378.53
2023-05-04T23:06:17.513Z,97369.38
2023-05-04T23:07:21.382Z,97372.78
2023-05-04T23:08:23.816Z,97369.25
2023-05-04T23:09:27.586Z,97365.44
2023-05-04T23:10:29.947Z,97363.75
2023-05-04T23:11:33.425Z,97362.34
2023-05-04T23:12:35.915Z,97366.34
2023-05-04T23:13:39.577Z,97365.84
2023-05-04T23:14:42.761Z,97367.53
2023-05-04T23:15:46.553Z,97358.94
2023-05-04T23:16:50.627Z,97364.25
2023-05-04T23:17:54.355Z,97361.44
2023-05-04T23:18:57.327Z,97372.47
2023-05-04T23:20:00.586Z,97357.31
2023-05-04T23:21:03.412Z,97360.47
2023-05-04T23:22:07.107Z,97355.63
2023-05-04T23:23:09.512Z,97356.75
2023-05-04T23:24:12.993Z,97355.66
2023-05-04T23:25:15.463Z,97354.06
2023-05-04T23:26:19.059Z,97358.59
2023-05-04T23:27:21.461Z,97350.59
2023-05-04T23:28:24.723Z,97354.88
2023-05-04T23:29:27.216Z,97349.81
2023-05-04T23:30:30.637Z,97353.56
2023-05-04T23:31:33.092Z,97354.06
2023-05-04T23:32:37.946Z,97344.41
2023-05-04T23:33:40.517Z,97345.47
2023-05-04T23:34:43.863Z,97344.09
2023-05-04T23:35:46.325Z,97346.72
2023-05-04T23:36:50.056Z,97343.22
2023-05-04T23:37:52.663Z,97342.13
2023-05-04T23:38:56.023Z,97339.22
2023-05-04T23:39:58.407Z,97344.25
2023-05-04T23:41:03.453Z,97348.47
2023-05-04T23:42:06.686Z,97348.16
2023-05-04T23:43:10.056Z,97337.94
2023-05-04T23:44:12.496Z,97347.59
2023-05-04T23:45:16.000Z,97346.56
2023-05-04T23:46:18.464Z,97344.91
2023-05-04T23:47:22.258Z,97348.41
2023-05-04T23:48:25.989Z,97339.88
2023-05-04T23:49:29.323Z,97347.38
2023-05-04T23:50:31.725Z,97345.97
2023-05-04T23:51:35.085Z,97343.78
2023-05-04T23:52:37.834Z,97339.41
2023-05-04T23:53:41.616Z,97344.75
2023-05-04T23:54:44.000Z,97339.56
2023-05-04T23:55:47.568Z,97340.56
2023-05-04T23:56:50.090Z,97334.66
2023-05-04T23:57:53.828Z,97342.41
2023-05-04T23:58:56.327Z,97331.47
2023-05-04T23:59:59.672Z,97335.19
